createdAt,value
2023-05-09T00:02:08.045Z,73.53
2023-05-09T00:04:35.491Z,73.67
2023-05-09T00:07:02.272Z,73.55
2023-05-09T00:09:28.926Z,73.85
2023-05-09T00:11:55.534Z,73.56
2023-05-09T00:14:22.221Z,73.51
2023-05-09T00:16:49.262Z,74.11
2023-05-09T00:19:15.970Z,73.82
2023-05-09T00:21:42.545Z,73.91
2023-05-09T00:24:09.030Z,73.86
2023-05-09T00:26:35.636Z,73.91
2023-05-09T00:29:02.255Z,73.45
2023-05-09T00:31:28.810Z,73.74
2023-05-09T00:33:55.441Z,73.50
2023-05-09T00:36:21.962Z,73.66
2023-05-09T00:38:52.124Z,73.41
2023-05-09T00:41:18.711Z,73.81
2023-05-09T00:43:45.860Z,73.79
2023-05-09T00:46:12.705Z,73.30
2023-05-09T00:48:39.344Z,73.24
2023-05-09T00:51:06.342Z,73.67
2023-05-09T00:53:33.714Z,72.73
2023-05-09T00:56:00.770Z,73.31
2023-05-09T00:58:27.642Z,73.18
2023-05-09T01:00:54.180Z,72.97
2023-05-09T01:03:20.779Z,73.52
2023-05-09T01:06:01.806Z,73.69
2023-05-09T01:08:44.391Z,73.40
2023-05-09T01:11:23.264Z,74.13
2023-05-09T01:14:13.137Z,74.08
2023-05-09T01:16:49.684Z,73.94
2023-05-09T01:19:36.659Z,74.08
2023-05-09T01:22:08.923Z,73.77
2023-05-09T01:24:53.357Z,73.91
2023-05-09T01:27:38.350Z,74.46
2023-05-09T01:30:07.136Z,74.55
2023-05-09T01:32:38.311Z,74.75
2023-05-09T01:35:07.144Z,73.46
2023-05-09T01:37:39.226Z,73.83
2023-05-09T01:40:14.678Z,74.23
2023-05-09T01:42:55.258Z,73.62
2023-05-09T01:45:23.805Z,73.40
2023-05-09T01:47:50.881Z,73.77
2023-05-09T01:50:19.928Z,73.59
2023-05-09T01:52:52.667Z,73.70
2023-05-09T01:55:21.453Z,74.06
2023-05-09T01:57:49.813Z,73.68
2023-05-09T02:00:17.219Z,73.90
2023-05-09T02:02:44.392Z,74.26
2023-05-09T02:05:12.537Z,75.07
2023-05-09T02:07:41.847Z,75.53
2023-05-09T02:10:10.669Z,74.46
2023-05-09T02:12:37.722Z,74.77
2023-05-09T02:15:05.886Z,75.35
2023-05-09T02:17:32.844Z,75.01
2023-05-09T02:19:59.700Z,75.23
2023-05-09T02:22:26.766Z,75.78
2023-05-09T02:24:53.536Z,76.54
2023-05-09T02:27:21.360Z,77.01
2023-05-09T02:29:50.933Z,77.48
2023-05-09T02:32:23.946Z,78.49
2023-05-09T02:34:53.111Z,78.98
2023-05-09T02:37:21.075Z,77.79
2023-05-09T02:39:48.216Z,78.63
2023-05-09T02:42:20.992Z,78.78
2023-05-09T02:44:47.679Z,78.83
2023-05-09T02:47:14.278Z,77.17
2023-05-09T02:49:40.872Z,77.30
2023-05-09T02:52:07.385Z,76.88
2023-05-09T02:54:33.968Z,77.24
2023-05-09T02:57:00.662Z,76.79
2023-05-09T02:59:27.652Z,76.69
2023-05-09T03:01:54.509Z,77.17
2023-05-09T03:04:21.081Z,77.58
2023-05-09T03:06:47.700Z,76.88
2023-05-09T03:09:14.339Z,77.58
2023-05-09T03:11:41.119Z,76.24
2023-05-09T03:14:08.597Z,77.24
2023-05-09T03:16:35.432Z,76.37
2023-05-09T03:19:02.169Z,76.28
2023-05-09T03:21:28.774Z,78.72
2023-05-09T03:23:55.554Z,78.17
2023-05-09T03:26:22.180Z,78.76
2023-05-09T03:28:49.097Z,79.90
2023-05-09T03:31:16.390Z,79.80
2023-05-09T03:33:43.036Z,80.65
2023-05-09T03:36:10.043Z,81.69
2023-05-09T03:38:36.676Z,80.80
2023-05-09T03:41:04.239Z,80.97
2023-05-09T03:43:31.135Z,81.14
2023-05-09T03:45:58.128Z,81.65
2023-05-09T03:48:24.783Z,81.70
2023-05-09T03:50:51.824Z,81.83
2023-05-09T03:53:18.556Z,82.11
2023-05-09T03:55:45.212Z,82.51
2023-05-09T03:58:12.300Z,83.19
2023-05-09T04:00:40.542Z,83.94
2023-05-09T04:03:07.359Z,83.83
2023-05-09T04:05:35.469Z,84.66
2023-05-09T04:08:03.086Z,84.60
2023-05-09T04:10:31.400Z,85.05
2023-05-09T04:12:58.218Z,84.58
2023-05-09T04:15:25.180Z,84.35
2023-05-09T04:17:52.014Z,84.41
2023-05-09T04:20:18.760Z,84.18
2023-05-09T04:22:47.015Z,83.30
2023-05-09T04:25:14.872Z,83.25
2023-05-09T04:27:41.824Z,84.03
2023-05-09T04:30:09.494Z,82.69
2023-05-09T04:32:36.926Z,82.53
2023-05-09T04:35:04.317Z,81.93
2023-05-09T04:37:32.898Z,80.95
2023-05-09T04:39:59.649Z,81.83
2023-05-09T04:42:26.385Z,82.45
2023-05-09T04:44:53.193Z,82.05
2023-05-09T04:47:19.960Z,80.15
2023-05-09T04:49:46.836Z,79.22
2023-05-09T04:52:13.450Z,79.38
2023-05-09T04:54:40.443Z,79.50
2023-05-09T04:57:17.408Z,77.57
2023-05-09T04:59:44.955Z,77.13
2023-05-09T05:02:11.878Z,76.57
2023-05-09T05:04:38.951Z,75.17
2023-05-09T05:07:05.862Z,74.79
2023-05-09T05:09:32.599Z,73.91
2023-05-09T05:12:02.271Z,72.84
2023-05-09T05:14:29.870Z,72.68
2023-05-09T05:16:56.648Z,71.70
2023-05-09T05:19:23.444Z,71.05
2023-05-09T05:21:50.217Z,70.57
2023-05-09T05:24:16.960Z,70.00
2023-05-09T05:26:43.817Z,69.02
2023-05-09T05:29:10.820Z,69.82
2023-05-09T05:31:37.704Z,68.90
2023-05-09T05:34:04.736Z,67.46
2023-05-09T05:36:32.371Z,66.88
2023-05-09T05:38:59.338Z,65.99
2023-05-09T05:41:27.321Z,65.63
2023-05-09T05:43:54.568Z,65.67
2023-05-09T05:46:21.534Z,65.37
2023-05-09T05:48:48.281Z,65.18
2023-05-09T05:51:15.410Z,64.58
2023-05-09T05:53:42.481Z,65.54
2023-05-09T05:56:09.606Z,65.41
2023-05-09T05:58:36.223Z,65.21
2023-05-09T06:01:02.906Z,64.22
2023-05-09T06:03:29.723Z,64.48
2023-05-09T06:05:56.804Z,64.72
2023-05-09T06:08:23.525Z,64.77
2023-05-09T06:10:50.328Z,64.93
2023-05-09T06:13:17.119Z,65.19
2023-05-09T06:15:43.986Z,64.97
2023-05-09T06:18:10.889Z,64.53
2023-05-09T06:20:37.692Z,64.11
2023-05-09T06:23:04.331Z,63.87
2023-05-09T06:25:31.017Z,63.57
2023-05-09T06:27:57.907Z,63.42
2023-05-09T06:30:26.697Z,64.80
2023-05-09T06:32:55.449Z,64.13
2023-05-09T06:35:22.461Z,63.31
2023-05-09T06:37:49.618Z,63.33
2023-05-09T06:40:17.159Z,62.95
2023-05-09T06:42:43.997Z,62.48
2023-05-09T06:45:11.633Z,62.00
2023-05-09T06:47:38.411Z,62.47
2023-05-09T06:50:05.508Z,61.25
2023-05-09T06:52:32.107Z,61.92
2023-05-09T06:54:58.704Z,61.30
2023-05-09T06:57:25.355Z,61.21
2023-05-09T06:59:51.857Z,60.73
2023-05-09T07:02:18.599Z,61.60
2023-05-09T07:04:45.665Z,61.15
2023-05-09T07:07:12.276Z,59.83
2023-05-09T07:09:39.173Z,60.91
2023-05-09T07:12:06.142Z,60.24
2023-05-09T07:14:32.874Z,60.79
2023-05-09T07:17:13.629Z,59.45
2023-05-09T07:19:48.150Z,59.77
2023-05-09T07:22:14.933Z,58.36
2023-05-09T07:24:41.744Z,59.30
2023-05-09T07:27:08.387Z,59.38
2023-05-09T07:29:35.101Z,59.66
2023-05-09T07:32:02.076Z,58.91
2023-05-09T07:34:28.839Z,58.83
2023-05-09T07:36:55.630Z,57.32
2023-05-09T07:39:22.282Z,57.75
2023-05-09T07:41:48.942Z,58.70
2023-05-09T07:44:16.173Z,58.97
2023-05-09T07:46:42.957Z,58.26
2023-05-09T07:49:10.013Z,56.89
2023-05-09T07:51:36.936Z,57.86
2023-05-09T07:54:03.813Z,57.63
2023-05-09T07:56:33.281Z,58.13
2023-05-09T07:58:59.946Z,57.95
2023-05-09T08:01:26.682Z,57.02
2023-05-09T08:03:53.827Z,56.99
2023-05-09T08:06:20.619Z,56.06
2023-05-09T08:08:47.366Z,55.74
2023-05-09T08:11:14.023Z,55.65
2023-05-09T08:13:40.657Z,56.00
2023-05-09T08:16:07.359Z,55.84
2023-05-09T08:18:34.155Z,56.20
2023-05-09T08:21:01.182Z,55.52
2023-05-09T08:23:30.470Z,56.16
2023-05-09T08:25:57.312Z,54.56
2023-05-09T08:28:28.882Z,55.63
2023-05-09T08:30:57.090Z,53.42
2023-05-09T08:33:24.336Z,54.48
2023-05-09T08:35:55.055Z,53.77
2023-05-09T08:38:22.093Z,54.89
2023-05-09T08:40:49.020Z,54.29
2023-05-09T08:43:19.354Z,53.58
2023-05-09T08:45:57.719Z,53.31
2023-05-09T08:48:25.952Z,52.56
2023-05-09T08:50:53.527Z,49.93
2023-05-09T08:53:21.897Z,51.25
2023-05-09T08:55:52.386Z,52.30
2023-05-09T08:58:20.582Z,51.03
2023-05-09T09:00:48.183Z,51.38
2023-05-09T09:03:15.637Z,51.34
2023-05-09T09:05:43.383Z,49.43
2023-05-09T09:08:11.224Z,48.94
2023-05-09T09:10:43.012Z,47.48
2023-05-09T09:13:10.362Z,47.70
2023-05-09T09:15:38.816Z,46.99
2023-05-09T09:18:10.439Z,46.38
2023-05-09T09:20:41.775Z,46.65
2023-05-09T09:23:12.429Z,46.21
2023-05-09T09:25:39.862Z,47.36
2023-05-09T09:28:06.790Z,48.63
2023-05-09T09:30:33.627Z,46.99
2023-05-09T09:33:00.715Z,47.65
2023-05-09T09:35:27.750Z,46.79
2023-05-09T09:38:02.002Z,47.45
2023-05-09T09:40:28.644Z,47.03
2023-05-09T09:42:55.328Z,45.63
2023-05-09T09:45:22.061Z,46.22
2023-05-09T09:47:50.319Z,45.13
2023-05-09T09:50:23.562Z,45.45
2023-05-09T09:52:52.245Z,46.02
2023-05-09T09:55:20.433Z,44.10
2023-05-09T09:57:48.565Z,44.91
2023-05-09T10:00:17.510Z,44.90
2023-05-09T10:02:52.443Z,42.86
2023-05-09T10:05:27.605Z,42.61
2023-05-09T10:08:00.196Z,43.61
2023-05-09T10:10:30.557Z,42.55
2023-05-09T10:12:59.857Z,44.37
2023-05-09T10:15:35.631Z,43.43
2023-05-09T10:18:11.222Z,44.04
2023-05-09T10:20:40.969Z,43.87
2023-05-09T10:23:08.709Z,43.74
2023-05-09T10:25:44.666Z,44.11
2023-05-09T10:28:13.736Z,44.17
2023-05-09T10:30:55.576Z,43.55
2023-05-09T10:33:30.851Z,44.34
2023-05-09T10:36:01.264Z,42.89
2023-05-09T10:38:28.540Z,43.38
2023-05-09T10:40:56.788Z,42.76
2023-05-09T10:43:25.223Z,43.32
2023-05-09T10:45:52.768Z,45.32
2023-05-09T10:48:19.956Z,44.23
2023-05-09T10:50:47.175Z,43.42
2023-05-09T10:53:21.786Z,44.82
2023-05-09T10:55:50.301Z,44.85
2023-05-09T10:58:37.627Z,44.95
2023-05-09T11:01:05.823Z,43.49
2023-05-09T11:03:55.886Z,44.38
2023-05-09T11:06:45.462Z,43.68
2023-05-09T11:09:41.665Z,42.87
2023-05-09T11:12:11.923Z,43.14
2023-05-09T11:14:46.453Z,43.96
2023-05-09T11:17:22.232Z,44.72
2023-05-09T11:19:49.669Z,47.62
2023-05-09T11:22:37.803Z,44.09
2023-05-09T11:25:17.224Z,45.87
2023-05-09T11:27:49.782Z,45.36
2023-05-09T11:30:19.712Z,45.56
2023-05-09T11:32:56.153Z,44.22
2023-05-09T11:35:24.473Z,44.85
2023-05-09T11:38:03.918Z,44.56
2023-05-09T11:40:32.121Z,44.64
2023-05-09T11:43:00.249Z,47.42
2023-05-09T11:45:32.186Z,46.20
2023-05-09T11:47:59.634Z,46.76
2023-05-09T11:50:26.684Z,44.91
2023-05-09T11:52:53.743Z,44.68
2023-05-09T11:55:25.909Z,45.26
2023-05-09T11:57:54.495Z,44.99
2023-05-09T12:00:23.707Z,45.82
2023-05-09T12:02:51.738Z,46.14
2023-05-09T12:05:20.372Z,45.70
2023-05-09T12:07:51.099Z,44.95
2023-05-09T12:10:25.727Z,46.12
2023-05-09T12:12:57.465Z,46.04
2023-05-09T12:15:24.659Z,46.13
2023-05-09T12:18:05.580Z,45.46
2023-05-09T12:20:42.535Z,44.53
2023-05-09T12:23:11.264Z,44.45
2023-05-09T12:25:37.928Z,45.52
2023-05-09T12:28:05.480Z,45.40
2023-05-09T12:30:32.725Z,45.01
2023-05-09T12:33:00.991Z,46.29
2023-05-09T12:35:27.946Z,45.78
2023-05-09T12:37:57.339Z,45.55
2023-05-09T12:40:24.446Z,47.44
2023-05-09T12:42:54.551Z,44.96
2023-05-09T12:45:21.289Z,45.82
2023-05-09T12:47:52.244Z,46.48
2023-05-09T12:50:19.359Z,46.04
2023-05-09T12:53:02.903Z,45.11
2023-05-09T12:55:31.911Z,45.76
2023-05-09T12:57:59.658Z,45.67
2023-05-09T13:00:26.505Z,45.33
2023-05-09T13:02:53.574Z,46.00
2023-05-09T13:05:22.192Z,47.08
2023-05-09T13:07:52.408Z,46.06
2023-05-09T13:10:31.167Z,48.08
2023-05-09T13:12:57.931Z,47.55
2023-05-09T13:15:26.929Z,45.49
2023-05-09T13:17:54.415Z,47.30
2023-05-09T13:20:21.364Z,46.44
2023-05-09T13:22:48.028Z,45.41
2023-05-09T13:25:16.188Z,45.26
2023-05-09T13:27:42.816Z,45.63
2023-05-09T13:30:09.790Z,45.40
2023-05-09T13:32:39.368Z,45.88
2023-05-09T13:35:08.094Z,46.92
2023-05-09T13:37:35.431Z,45.22
2023-05-09T13:40:02.846Z,44.62
2023-05-09T13:42:29.441Z,45.57
2023-05-09T13:44:56.050Z,45.03
2023-05-09T13:47:22.836Z,44.78
2023-05-09T13:49:49.624Z,47.39
2023-05-09T13:52:16.868Z,48.03
2023-05-09T13:54:43.912Z,47.15
2023-05-09T13:57:11.027Z,47.08
2023-05-09T13:59:37.938Z,47.21
2023-05-09T14:02:04.677Z,45.78
2023-05-09T14:04:34.669Z,44.55
2023-05-09T14:07:01.580Z,44.17
2023-05-09T14:09:29.690Z,44.36
2023-05-09T14:11:57.201Z,44.28
2023-05-09T14:14:25.470Z,44.74
2023-05-09T14:16:52.160Z,46.11
2023-05-09T14:19:18.934Z,46.93
2023-05-09T14:21:49.022Z,46.55
2023-05-09T14:24:16.515Z,44.84
2023-05-09T14:26:43.933Z,44.39
2023-05-09T14:29:11.136Z,44.64
2023-05-09T14:31:37.997Z,44.30
2023-05-09T14:34:05.383Z,43.12
2023-05-09T14:36:35.970Z,44.58
2023-05-09T14:39:02.918Z,44.37
2023-05-09T14:41:29.563Z,45.42
2023-05-09T14:43:56.354Z,44.57
2023-05-09T14:46:24.995Z,44.10
2023-05-09T14:48:52.865Z,44.91
2023-05-09T14:51:19.638Z,44.36
2023-05-09T14:53:47.387Z,44.61
2023-05-09T14:56:14.146Z,43.75
2023-05-09T14:58:40.815Z,44.71
2023-05-09T15:01:07.470Z,45.36
2023-05-09T15:03:37.358Z,45.56
2023-05-09T15:06:04.197Z,43.31
2023-05-09T15:08:51.140Z,45.14
2023-05-09T15:11:17.911Z,43.24
2023-05-09T15:13:44.602Z,44.34
2023-05-09T15:16:11.337Z,44.56
2023-05-09T15:18:42.801Z,45.76
2023-05-09T15:21:10.087Z,45.08
2023-05-09T15:23:36.730Z,46.59
2023-05-09T15:26:03.591Z,45.22
2023-05-09T15:28:30.277Z,46.18
2023-05-09T15:30:58.188Z,44.69
2023-05-09T15:33:25.086Z,46.00
2023-05-09T15:35:57.968Z,45.57
2023-05-09T15:38:24.804Z,46.77
2023-05-09T15:40:51.874Z,46.28
2023-05-09T15:43:18.556Z,44.05
2023-05-09T15:45:46.754Z,45.38
2023-05-09T15:48:14.332Z,44.35
2023-05-09T15:50:42.314Z,45.20
2023-05-09T15:53:09.394Z,44.44
2023-05-09T15:55:36.652Z,45.24
2023-05-09T15:58:04.039Z,43.06
2023-05-09T16:00:31.034Z,43.09
2023-05-09T16:03:02.104Z,42.79
2023-05-09T16:05:29.295Z,41.93
2023-05-09T16:07:56.146Z,41.40
2023-05-09T16:10:22.725Z,40.87
2023-05-09T16:12:49.487Z,41.47
2023-05-09T16:15:16.125Z,41.28
2023-05-09T16:17:43.576Z,40.39
2023-05-09T16:20:13.830Z,40.59
2023-05-09T16:22:41.222Z,40.08
2023-05-09T16:25:08.723Z,39.37
2023-05-09T16:27:35.424Z,39.58
2023-05-09T16:30:03.110Z,39.51
2023-05-09T16:32:29.788Z,39.13
2023-05-09T16:34:56.522Z,38.41
2023-05-09T16:37:23.755Z,38.63
2023-05-09T16:39:50.440Z,39.51
2023-05-09T16:42:23.780Z,40.24
2023-05-09T16:44:54.084Z,38.48
2023-05-09T16:47:20.923Z,38.60
2023-05-09T16:49:47.623Z,38.71
2023-05-09T16:52:19.800Z,39.42
2023-05-09T16:54:46.535Z,39.67
2023-05-09T16:57:13.469Z,40.00
2023-05-09T16:59:40.174Z,40.12
2023-05-09T17:02:07.329Z,41.81
2023-05-09T17:04:40.242Z,41.09
2023-05-09T17:07:06.740Z,40.55
2023-05-09T17:09:33.360Z,40.64
2023-05-09T17:12:00.718Z,40.84
2023-05-09T17:14:27.409Z,40.35
2023-05-09T17:16:54.062Z,39.91
2023-05-09T17:19:23.492Z,40.46
2023-05-09T17:21:50.456Z,40.81
2023-05-09T17:24:17.498Z,40.73
2023-05-09T17:26:44.262Z,41.15
2023-05-09T17:29:10.966Z,40.81
2023-05-09T17:31:37.703Z,40.38
2023-05-09T17:34:05.749Z,41.06
2023-05-09T17:36:33.763Z,41.09
2023-05-09T17:39:00.931Z,41.30
2023-05-09T17:41:27.892Z,41.53
2023-05-09T17:43:57.278Z,41.93
2023-05-09T17:46:24.516Z,41.73
2023-05-09T17:48:51.465Z,41.97
2023-05-09T17:51:18.652Z,42.28
2023-05-09T17:53:45.339Z,42.68
2023-05-09T17:56:11.925Z,42.79
2023-05-09T17:58:38.635Z,43.13
2023-05-09T18:01:05.859Z,42.61
2023-05-09T18:03:33.066Z,43.55
2023-05-09T18:06:02.862Z,44.17
2023-05-09T18:08:29.989Z,44.18
2023-05-09T18:10:57.453Z,44.40
2023-05-09T18:13:24.603Z,44.34
2023-05-09T18:15:51.632Z,45.09
2023-05-09T18:18:18.332Z,44.37
2023-05-09T18:20:47.263Z,44.20
2023-05-09T18:23:15.155Z,44.34
2023-05-09T18:25:42.088Z,44.72
2023-05-09T18:28:08.880Z,44.84
2023-05-09T18:30:36.292Z,44.85
2023-05-09T18:33:03.833Z,44.91
2023-05-09T18:35:30.499Z,44.97
2023-05-09T18:37:57.261Z,45.65
2023-05-09T18:40:23.978Z,45.42
2023-05-09T18:42:50.601Z,45.01
2023-05-09T18:45:17.483Z,45.36
2023-05-09T18:47:44.169Z,44.84
2023-05-09T18:50:13.689Z,44.80
2023-05-09T18:52:40.862Z,45.01
2023-05-09T18:55:08.038Z,44.90
2023-05-09T18:57:34.836Z,44.53
2023-05-09T19:00:01.762Z,44.89
2023-05-09T19:02:30.589Z,43.94
2023-05-09T19:04:57.553Z,44.34
2023-05-09T19:07:32.905Z,44.72
2023-05-09T19:10:00.736Z,43.51
2023-05-09T19:12:31.811Z,43.86
2023-05-09T19:14:58.458Z,44.70
2023-05-09T19:17:25.057Z,44.22
2023-05-09T19:19:51.652Z,44.38
2023-05-09T19:22:18.426Z,43.96
2023-05-09T19:24:45.130Z,44.42
2023-05-09T19:27:11.819Z,44.37
2023-05-09T19:29:38.417Z,44.63
2023-05-09T19:32:07.099Z,44.69
2023-05-09T19:34:33.707Z,45.07
2023-05-09T19:37:00.539Z,44.92
2023-05-09T19:39:28.889Z,45.16
2023-05-09T19:41:55.722Z,45.98
2023-05-09T19:44:22.313Z,45.85
2023-05-09T19:46:49.060Z,45.83
2023-05-09T19:49:17.903Z,46.43
2023-05-09T19:51:45.186Z,47.21
2023-05-09T19:54:12.425Z,47.14
2023-05-09T19:56:39.204Z,48.16
2023-05-09T19:59:05.810Z,48.74
2023-05-09T20:01:32.476Z,49.24
2023-05-09T20:03:59.584Z,49.54
2023-05-09T20:06:26.259Z,50.31
2023-05-09T20:08:52.924Z,50.54
2023-05-09T20:11:19.608Z,51.35
2023-05-09T20:13:46.625Z,51.60
2023-05-09T20:16:21.444Z,51.48
2023-05-09T20:18:50.681Z,51.62
2023-05-09T20:21:18.852Z,52.27
2023-05-09T20:23:45.554Z,52.77
2023-05-09T20:26:12.296Z,52.43
2023-05-09T20:28:39.071Z,53.16
2023-05-09T20:31:05.816Z,53.83
2023-05-09T20:33:32.817Z,54.61
2023-05-09T20:35:59.482Z,54.59
2023-05-09T20:38:26.131Z,54.44
2023-05-09T20:40:52.703Z,55.42
2023-05-09T20:43:34.359Z,55.15
2023-05-09T20:46:04.972Z,55.61
2023-05-09T20:48:31.913Z,55.76
2023-05-09T20:50:58.589Z,56.63
2023-05-09T20:53:31.368Z,56.23
2023-05-09T20:55:59.905Z,56.29
2023-05-09T20:58:28.161Z,56.60
2023-05-09T21:00:57.863Z,56.72
2023-05-09T21:03:24.611Z,56.95
2023-05-09T21:05:51.266Z,57.07
2023-05-09T21:08:17.899Z,57.28
2023-05-09T21:10:44.681Z,57.38
2023-05-09T21:13:11.328Z,57.78
2023-05-09T21:15:37.936Z,58.11
2023-05-09T21:18:05.029Z,57.63
2023-05-09T21:20:31.643Z,57.95
2023-05-09T21:22:58.326Z,57.94
2023-05-09T21:25:25.069Z,58.38
2023-05-09T21:27:51.643Z,58.26
2023-05-09T21:30:18.437Z,57.45
2023-05-09T21:32:45.042Z,58.33
2023-05-09T21:35:13.257Z,58.47
2023-05-09T21:37:58.840Z,57.82
2023-05-09T21:40:25.723Z,58.61
2023-05-09T21:42:52.296Z,58.83
2023-05-09T21:45:19.189Z,58.30
2023-05-09T21:47:45.929Z,58.23
2023-05-09T21:50:12.746Z,58.38
2023-05-09T21:52:39.331Z,58.38
2023-05-09T21:55:06.028Z,58.59
2023-05-09T21:57:32.635Z,58.69
2023-05-09T22:00:01.598Z,58.93
2023-05-09T22:02:31.885Z,59.15
2023-05-09T22:04:58.488Z,58.67
2023-05-09T22:07:25.395Z,59.24
2023-05-09T22:09:52.980Z,59.61
2023-05-09T22:12:19.875Z,59.53
2023-05-09T22:14:55.757Z,59.48
2023-05-09T22:17:24.118Z,59.82
2023-05-09T22:19:50.845Z,59.82
2023-05-09T22:22:17.538Z,59.90
2023-05-09T22:24:44.208Z,60.20
2023-05-09T22:27:11.140Z,59.94
2023-05-09T22:29:37.782Z,60.46
2023-05-09T22:32:04.694Z,60.44
2023-05-09T22:34:31.468Z,60.78
2023-05-09T22:36:58.008Z,61.03
2023-05-09T22:39:24.813Z,60.72
2023-05-09T22:41:51.424Z,60.97
2023-05-09T22:44:18.072Z,61.25
2023-05-09T22:46:44.740Z,61.67
2023-05-09T22:49:11.349Z,61.76
2023-05-09T22:51:37.966Z,61.52
2023-05-09T22:54:04.625Z,61.76
2023-05-09T22:56:31.492Z,62.37
2023-05-09T22:58:58.950Z,62.38
2023-05-09T23:01:27.334Z,62.04
2023-05-09T23:03:53.986Z,63.00
2023-05-09T23:06:20.791Z,63.08
2023-05-09T23:08:47.466Z,63.20
2023-05-09T23:11:13.994Z,63.35
2023-05-09T23:13:40.753Z,63.60
2023-05-09T23:16:07.458Z,63.55
2023-05-09T23:18:34.048Z,64.09
2023-05-09T23:21:00.555Z,63.88
2023-05-09T23:23:27.297Z,63.91
2023-05-09T23:25:53.866Z,63.71
2023-05-09T23:28:25.102Z,64.23
2023-05-09T23:30:54.425Z,64.36
2023-05-09T23:33:21.526Z,64.57
2023-05-09T23:35:48.462Z,64.20
2023-05-09T23:38:15.027Z,64.33
2023-05-09T23:40:45.227Z,64.13
2023-05-09T23:43:13.004Z,64.07
2023-05-09T23:45:53.740Z,64.55
2023-05-09T23:48:20.470Z,64.96
2023-05-09T23:50:46.942Z,64.54
2023-05-09T23:53:13.701Z,65.00
2023-05-09T23:55:40.300Z,65.09
2023-05-09T23:58:06.963Z,65.58
